sensor_id;sensor_type;location;lat;lon;timestamp;P1;durP1;ratioP1;P2;durP2;ratioP2
31464;SDS011;18089;47.428;15.006;2022-09-12T00:01:01;4.35;;;4.15;;
31464;SDS011;18089;47.428;15.006;2022-09-12T00:03:34;4.25;;;4.05;;
31464;SDS011;18089;47.428;15.006;2022-09-12T00:06:08;4.00;;;3.80;;
31464;SDS011;18089;47.428;15.006;2022-09-12T00:08:41;4.20;;;3.90;;
31464;SDS011;18089;47.428;15.006;2022-09-12T00:11:13;4.07;;;3.88;;
31464;SDS011;18089;47.428;15.006;2022-09-12T00:13:46;4.50;;;4.20;;
31464;SDS011;18089;47.428;15.006;2022-09-12T00:16:19;4.55;;;4.15;;
31464;SDS011;18089;47.428;15.006;2022-09-12T00:18:53;4.40;;;4.10;;
31464;SDS011;18089;47.428;15.006;2022-09-12T00:21:25;4.65;;;4.25;;
31464;SDS011;18089;47.428;15.006;2022-09-12T00:23:57;4.28;;;4.07;;
31464;SDS011;18089;47.428;15.006;2022-09-12T00:26:29;4.47;;;4.18;;
31464;SDS011;18089;47.428;15.006;2022-09-12T00:29:03;4.50;;;4.20;;
31464;SDS011;18089;47.428;15.006;2022-09-12T00:31:35;4.95;;;4.60;;
31464;SDS011;18089;47.428;15.006;2022-09-12T00:34:07;4.78;;;4.30;;
31464;SDS011;18089;47.428;15.006;2022-09-12T00:36:40;4.70;;;4.30;;
31464;SDS011;18089;47.428;15.006;2022-09-12T00:39:13;4.80;;;4.40;;
31464;SDS011;18089;47.428;15.006;2022-09-12T00:41:46;5.20;;;4.80;;
31464;SDS011;18089;47.428;15.006;2022-09-12T00:47:20;5.00;;;4.70;;
31464;SDS011;18089;47.428;15.006;2022-09-12T00:49:56;5.00;;;4.50;;
31464;SDS011;18089;47.428;15.006;2022-09-12T00:52:32;5.00;;;4.53;;
31464;SDS011;18089;47.428;15.006;2022-09-12T00:55:07;5.97;;;5.00;;
31464;SDS011;18089;47.428;15.006;2022-09-12T00:57:42;4.75;;;4.45;;
31464;SDS011;18089;47.428;15.006;2022-09-12T01:00:17;5.50;;;4.65;;
31464;SDS011;18089;47.428;15.006;2022-09-12T01:02:52;5.38;;;4.88;;
31464;SDS011;18089;47.428;15.006;2022-09-12T01:05:27;5.40;;;5.10;;
31464;SDS011;18089;47.428;15.006;2022-09-12T01:08:00;5.28;;;4.88;;
31464;SDS011;18089;47.428;15.006;2022-09-12T01:10:33;5.20;;;4.90;;
31464;SDS011;18089;47.428;15.006;2022-09-12T01:13:06;5.75;;;4.90;;
31464;SDS011;18089;47.428;15.006;2022-09-12T01:15:41;4.97;;;4.65;;
31464;SDS011;18089;47.428;15.006;2022-09-12T01:18:15;5.28;;;4.72;;
31464;SDS011;18089;47.428;15.006;2022-09-12T01:20:56;5.22;;;4.82;;
31464;SDS011;18089;47.428;15.006;2022-09-12T01:23:51;6.72;;;5.25;;
31464;SDS011;18089;47.428;15.006;2022-09-12T01:27:00;5.68;;;5.00;;
31464;SDS011;18089;47.428;15.006;2022-09-12T01:30:21;5.22;;;4.88;;
31464;SDS011;18089;47.428;15.006;2022-09-12T01:39:00;5.43;;;5.10;;
31464;SDS011;18089;47.428;15.006;2022-09-12T01:41:38;5.85;;;5.40;;
31464;SDS011;18089;47.428;15.006;2022-09-12T01:44:15;5.50;;;5.20;;
31464;SDS011;18089;47.428;15.006;2022-09-12T01:46:55;5.93;;;5.53;;
31464;SDS011;18089;47.428;15.006;2022-09-12T01:49:31;5.40;;;5.10;;
31464;SDS011;18089;47.428;15.006;2022-09-12T01:52:08;5.55;;;5.15;;
31464;SDS011;18089;47.428;15.006;2022-09-12T01:54:43;5.40;;;5.10;;
31464;SDS011;18089;47.428;15.006;2022-09-12T01:57:18;5.60;;;5.30;;
31464;SDS011;18089;47.428;15.006;2022-09-12T01:59:55;5.82;;;5.30;;
31464;SDS011;18089;47.428;15.006;2022-09-12T02:02:31;5.43;;;5.13;;
31464;SDS011;18089;47.428;15.006;2022-09-12T02:05:05;5.78;;;5.38;;
31464;SDS011;18089;47.428;15.006;2022-09-12T02:07:41;5.68;;;5.28;;
31464;SDS011;18089;47.428;15.006;2022-09-12T02:10:16;5.30;;;4.90;;
31464;SDS011;18089;47.428;15.006;2022-09-12T02:12:51;6.00;;;5.45;;
31464;SDS011;18089;47.428;15.006;2022-09-12T02:15:26;6.30;;;5.18;;
31464;SDS011;18089;47.428;15.006;2022-09-12T02:18:04;5.32;;;5.00;;
31464;SDS011;18089;47.428;15.006;2022-09-12T02:20:37;5.57;;;5.07;;
31464;SDS011;18089;47.428;15.006;2022-09-12T02:23:11;5.20;;;4.90;;
31464;SDS011;18089;47.428;15.006;2022-09-12T02:25:44;5.53;;;5.03;;
31464;SDS011;18089;47.428;15.006;2022-09-12T02:28:17;5.18;;;4.68;;
31464;SDS011;18089;47.428;15.006;2022-09-12T02:30:55;5.25;;;4.85;;
31464;SDS011;18089;47.428;15.006;2022-09-12T02:33:35;5.70;;;5.30;;
31464;SDS011;18089;47.428;15.006;2022-09-12T02:36:14;5.20;;;4.90;;
31464;SDS011;18089;47.428;15.006;2022-09-12T02:38:53;5.00;;;4.70;;
31464;SDS011;18089;47.428;15.006;2022-09-12T02:41:25;5.32;;;4.82;;
31464;SDS011;18089;47.428;15.006;2022-09-12T02:43:57;6.57;;;4.97;;
31464;SDS011;18089;47.428;15.006;2022-09-12T02:46:30;5.40;;;5.00;;
31464;SDS011;18089;47.428;15.006;2022-09-12T02:49:07;5.60;;;5.20;;
31464;SDS011;18089;47.428;15.006;2022-09-12T02:51:40;6.20;;;5.57;;
31464;SDS011;18089;47.428;15.006;2022-09-12T02:54:12;5.45;;;4.97;;
31464;SDS011;18089;47.428;15.006;2022-09-12T02:56:45;5.45;;;5.05;;
31464;SDS011;18089;47.428;15.006;2022-09-12T02:59:18;5.78;;;5.25;;
31464;SDS011;18089;47.428;15.006;2022-09-12T03:01:55;7.75;;;7.00;;
31464;SDS011;18089;47.428;15.006;2022-09-12T03:04:45;8.88;;;6.70;;
31464;SDS011;18089;47.428;15.006;2022-09-12T03:07:27;8.73;;;6.50;;
31464;SDS011;18089;47.428;15.006;2022-09-12T03:10:09;6.55;;;6.00;;
31464;SDS011;18089;47.428;15.006;2022-09-12T03:12:46;8.18;;;6.20;;
31464;SDS011;18089;47.428;15.006;2022-09-12T03:15:27;8.02;;;7.00;;
31464;SDS011;18089;47.428;15.006;2022-09-12T03:18:11;9.02;;;7.15;;
31464;SDS011;18089;47.428;15.006;2022-09-12T03:20:58;7.72;;;6.93;;
31464;SDS011;18089;47.428;15.006;2022-09-12T03:23:33;8.13;;;7.35;;
31464;SDS011;18089;47.428;15.006;2022-09-12T03:26:10;7.10;;;6.40;;
31464;SDS011;18089;47.428;15.006;2022-09-12T03:28:47;7.70;;;7.03;;
31464;SDS011;18089;47.428;15.006;2022-09-12T03:31:20;8.02;;;6.72;;
31464;SDS011;18089;47.428;15.006;2022-09-12T03:33:52;7.50;;;6.57;;
31464;SDS011;18089;47.428;15.006;2022-09-12T03:36:26;7.38;;;6.68;;
31464;SDS011;18089;47.428;15.006;2022-09-12T03:38:59;10.00;;;6.65;;
31464;SDS011;18089;47.428;15.006;2022-09-12T03:41:31;10.00;;;7.22;;
31464;SDS011;18089;47.428;15.006;2022-09-12T03:44:03;6.95;;;6.30;;
31464;SDS011;18089;47.428;15.006;2022-09-12T03:46:35;8.52;;;6.50;;
31464;SDS011;18089;47.428;15.006;2022-09-12T03:49:07;7.57;;;6.13;;
31464;SDS011;18089;47.428;15.006;2022-09-12T03:51:41;6.20;;;5.60;;
31464;SDS011;18089;47.428;15.006;2022-09-12T03:54:13;6.63;;;6.03;;
31464;SDS011;18089;47.428;15.006;2022-09-12T03:56:45;6.80;;;5.82;;
31464;SDS011;18089;47.428;15.006;2022-09-12T03:59:17;5.65;;;5.22;;
31464;SDS011;18089;47.428;15.006;2022-09-12T04:01:49;5.90;;;5.50;;
31464;SDS011;18089;47.428;15.006;2022-09-12T04:04:21;6.00;;;5.50;;
31464;SDS011;18089;47.428;15.006;2022-09-12T04:06:55;6.95;;;5.50;;
31464;SDS011;18089;47.428;15.006;2022-09-12T04:09:27;5.30;;;4.93;;
31464;SDS011;18089;47.428;15.006;2022-09-12T04:11:59;5.68;;;5.32;;
31464;SDS011;18089;47.428;15.006;2022-09-12T04:14:31;5.47;;;5.00;;
31464;SDS011;18089;47.428;15.006;2022-09-12T04:17:03;5.25;;;4.85;;
31464;SDS011;18089;47.428;15.006;2022-09-12T04:19:35;5.53;;;5.10;;
31464;SDS011;18089;47.428;15.006;2022-09-12T04:22:08;5.30;;;4.80;;
31464;SDS011;18089;47.428;15.006;2022-09-12T04:24:40;6.75;;;5.35;;
31464;SDS011;18089;47.428;15.006;2022-09-12T04:27:12;6.22;;;5.20;;
31464;SDS011;18089;47.428;15.006;2022-09-12T04:29:44;5.90;;;5.50;;
31464;SDS011;18089;47.428;15.006;2022-09-12T04:32:16;5.82;;;5.32;;
31464;SDS011;18089;47.428;15.006;2022-09-12T04:34:49;5.70;;;5.20;;
31464;SDS011;18089;47.428;15.006;2022-09-12T04:37:23;7.75;;;6.95;;
31464;SDS011;18089;47.428;15.006;2022-09-12T04:39:55;7.25;;;6.65;;
31464;SDS011;18089;47.428;15.006;2022-09-12T04:42:28;7.38;;;6.55;;
31464;SDS011;18089;47.428;15.006;2022-09-12T04:45:00;9.00;;;6.28;;
31464;SDS011;18089;47.428;15.006;2022-09-12T04:47:32;6.80;;;6.30;;
31464;SDS011;18089;47.428;15.006;2022-09-12T04:50:05;7.20;;;6.63;;
31464;SDS011;18089;47.428;15.006;2022-09-12T04:52:39;9.50;;;6.90;;
31464;SDS011;18089;47.428;15.006;2022-09-12T04:55:11;11.77;;;8.02;;
31464;SDS011;18089;47.428;15.006;2022-09-12T04:57:43;8.65;;;6.43;;
31464;SDS011;18089;47.428;15.006;2022-09-12T05:00:15;7.30;;;6.70;;
31464;SDS011;18089;47.428;15.006;2022-09-12T05:02:47;7.00;;;6.50;;
31464;SDS011;18089;47.428;15.006;2022-09-12T05:05:19;8.55;;;6.25;;
31464;SDS011;18089;47.428;15.006;2022-09-12T05:07:53;6.47;;;5.88;;
31464;SDS011;18089;47.428;15.006;2022-09-12T05:10:25;6.72;;;6.15;;
31464;SDS011;18089;47.428;15.006;2022-09-12T05:12:57;6.45;;;5.90;;
31464;SDS011;18089;47.428;15.006;2022-09-12T05:15:29;7.45;;;6.68;;
31464;SDS011;18089;47.428;15.006;2022-09-12T05:18:01;6.63;;;5.50;;
31464;SDS011;18089;47.428;15.006;2022-09-12T05:20:33;6.70;;;6.10;;
31464;SDS011;18089;47.428;15.006;2022-09-12T05:23:07;5.95;;;5.45;;
31464;SDS011;18089;47.428;15.006;2022-09-12T05:25:39;5.90;;;5.40;;
31464;SDS011;18089;47.428;15.006;2022-09-12T05:28:16;5.80;;;5.40;;
31464;SDS011;18089;47.428;15.006;2022-09-12T05:30:58;5.90;;;5.40;;
31464;SDS011;18089;47.428;15.006;2022-09-12T05:33:30;6.90;;;5.28;;
31464;SDS011;18089;47.428;15.006;2022-09-12T05:36:04;5.40;;;4.97;;
31464;SDS011;18089;47.428;15.006;2022-09-12T05:38:38;5.20;;;4.80;;
31464;SDS011;18089;47.428;15.006;2022-09-12T05:41:11;5.25;;;4.85;;
31464;SDS011;18089;47.428;15.006;2022-09-12T05:43:44;5.60;;;5.20;;
31464;SDS011;18089;47.428;15.006;2022-09-12T05:46:18;5.25;;;4.07;;
31464;SDS011;18089;47.428;15.006;2022-09-12T05:48:51;4.63;;;4.32;;
31464;SDS011;18089;47.428;15.006;2022-09-12T05:51:24;5.07;;;4.57;;
31464;SDS011;18089;47.428;15.006;2022-09-12T05:54:00;5.07;;;4.68;;
31464;SDS011;18089;47.428;15.006;2022-09-12T05:56:35;5.95;;;4.70;;
31464;SDS011;18089;47.428;15.006;2022-09-12T05:59:10;7.30;;;5.10;;
31464;SDS011;18089;47.428;15.006;2022-09-12T06:01:43;5.60;;;5.10;;
31464;SDS011;18089;47.428;15.006;2022-09-12T06:04:15;5.07;;;4.78;;
31464;SDS011;18089;47.428;15.006;2022-09-12T06:06:47;5.57;;;4.80;;
31464;SDS011;18089;47.428;15.006;2022-09-12T06:09:22;5.40;;;5.00;;
31464;SDS011;18089;47.428;15.006;2022-09-12T06:11:55;4.80;;;4.50;;
31464;SDS011;18089;47.428;15.006;2022-09-12T06:14:27;9.23;;;4.88;;
31464;SDS011;18089;47.428;15.006;2022-09-12T06:16:59;4.97;;;4.68;;
31464;SDS011;18089;47.428;15.006;2022-09-12T06:19:31;5.43;;;5.03;;
31464;SDS011;18089;47.428;15.006;2022-09-12T06:22:03;5.50;;;5.10;;
31464;SDS011;18089;47.428;15.006;2022-09-12T06:24:36;5.20;;;4.75;;
31464;SDS011;18089;47.428;15.006;2022-09-12T06:27:08;5.50;;;5.10;;
31464;SDS011;18089;47.428;15.006;2022-09-12T06:29:40;8.45;;;4.93;;
31464;SDS011;18089;47.428;15.006;2022-09-12T06:32:12;6.20;;;5.47;;
31464;SDS011;18089;47.428;15.006;2022-09-12T06:34:45;5.60;;;5.20;;
31464;SDS011;18089;47.428;15.006;2022-09-12T06:37:17;5.20;;;4.80;;
31464;SDS011;18089;47.428;15.006;2022-09-12T06:39:51;6.35;;;4.53;;
31464;SDS011;18089;47.428;15.006;2022-09-12T06:42:23;6.85;;;4.88;;
31464;SDS011;18089;47.428;15.006;2022-09-12T06:44:55;4.80;;;4.50;;
31464;SDS011;18089;47.428;15.006;2022-09-12T06:47:27;4.90;;;4.40;;
31464;SDS011;18089;47.428;15.006;2022-09-12T06:49:59;5.68;;;4.65;;
31464;SDS011;18089;47.428;15.006;2022-09-12T06:52:31;5.20;;;4.88;;
31464;SDS011;18089;47.428;15.006;2022-09-12T06:55:05;5.03;;;4.60;;
31464;SDS011;18089;47.428;15.006;2022-09-12T06:57:37;4.72;;;4.30;;
31464;SDS011;18089;47.428;15.006;2022-09-12T07:00:10;6.18;;;4.70;;
31464;SDS011;18089;47.428;15.006;2022-09-12T07:02:43;4.95;;;4.50;;
31464;SDS011;18089;47.428;15.006;2022-09-12T07:05:15;4.65;;;4.30;;
31464;SDS011;18089;47.428;15.006;2022-09-12T07:07:47;5.75;;;5.25;;
31464;SDS011;18089;47.428;15.006;2022-09-12T07:10:21;6.10;;;5.20;;
31464;SDS011;18089;47.428;15.006;2022-09-12T07:12:53;5.57;;;5.03;;
31464;SDS011;18089;47.428;15.006;2022-09-12T07:15:25;5.15;;;4.53;;
31464;SDS011;18089;47.428;15.006;2022-09-12T07:17:57;4.90;;;4.50;;
31464;SDS011;18089;47.428;15.006;2022-09-12T07:20:29;5.13;;;4.50;;
31464;SDS011;18089;47.428;15.006;2022-09-12T07:23:02;5.28;;;4.80;;
31464;SDS011;18089;47.428;15.006;2022-09-12T07:25:35;6.03;;;5.18;;
31464;SDS011;18089;47.428;15.006;2022-09-12T07:28:07;5.32;;;4.93;;
31464;SDS011;18089;47.428;15.006;2022-09-12T07:30:39;4.88;;;4.45;;
31464;SDS011;18089;47.428;15.006;2022-09-12T07:33:11;5.07;;;4.68;;
31464;SDS011;18089;47.428;15.006;2022-09-12T07:35:44;5.38;;;4.82;;
31464;SDS011;18089;47.428;15.006;2022-09-12T07:38:16;4.85;;;4.55;;
31464;SDS011;18089;47.428;15.006;2022-09-12T07:40:50;5.30;;;4.90;;
31464;SDS011;18089;47.428;15.006;2022-09-12T07:43:22;5.25;;;4.85;;
31464;SDS011;18089;47.428;15.006;2022-09-12T07:45:54;5.28;;;4.88;;
31464;SDS011;18089;47.428;15.006;2022-09-12T07:48:27;5.57;;;5.07;;
31464;SDS011;18089;47.428;15.006;2022-09-12T07:50:59;4.97;;;4.60;;
31464;SDS011;18089;47.428;15.006;2022-09-12T07:53:33;4.53;;;4.22;;
31464;SDS011;18089;47.428;15.006;2022-09-12T07:56:08;5.43;;;4.93;;
31464;SDS011;18089;47.428;15.006;2022-09-12T07:58:41;5.00;;;4.70;;
31464;SDS011;18089;47.428;15.006;2022-09-12T08:01:15;4.97;;;4.57;;
31464;SDS011;18089;47.428;15.006;2022-09-12T08:03:48;4.90;;;4.60;;
31464;SDS011;18089;47.428;15.006;2022-09-12T08:06:27;7.85;;;5.47;;
31464;SDS011;18089;47.428;15.006;2022-09-12T08:09:03;6.15;;;5.50;;
31464;SDS011;18089;47.428;15.006;2022-09-12T08:11:38;4.90;;;4.60;;
31464;SDS011;18089;47.428;15.006;2022-09-12T08:14:10;6.40;;;4.72;;
31464;SDS011;18089;47.428;15.006;2022-09-12T08:16:42;5.85;;;4.57;;
31464;SDS011;18089;47.428;15.006;2022-09-12T08:19:14;5.18;;;4.80;;
31464;SDS011;18089;47.428;15.006;2022-09-12T08:21:46;4.72;;;4.43;;
31464;SDS011;18089;47.428;15.006;2022-09-12T08:24:18;4.47;;;4.20;;
31464;SDS011;18089;47.428;15.006;2022-09-12T08:26:52;8.05;;;4.28;;
31464;SDS011;18089;47.428;15.006;2022-09-12T08:29:24;4.47;;;4.07;;
31464;SDS011;18089;47.428;15.006;2022-09-12T08:31:56;4.22;;;3.90;;
31464;SDS011;18089;47.428;15.006;2022-09-12T08:34:28;4.47;;;4.05;;
31464;SDS011;18089;47.428;15.006;2022-09-12T08:37:00;4.43;;;4.03;;
31464;SDS011;18089;47.428;15.006;2022-09-12T08:39:33;5.03;;;4.05;;
31464;SDS011;18089;47.428;15.006;2022-09-12T08:42:08;4.00;;;3.70;;
31464;SDS011;18089;47.428;15.006;2022-09-12T08:44:53;3.30;;;3.10;;
31464;SDS011;18089;47.428;15.006;2022-09-12T08:47:34;3.60;;;3.40;;
31464;SDS011;18089;47.428;15.006;2022-09-12T08:50:10;3.60;;;3.40;;
31464;SDS011;18089;47.428;15.006;2022-09-12T08:52:48;3.60;;;3.40;;
31464;SDS011;18089;47.428;15.006;2022-09-12T08:55:25;3.50;;;3.20;;
31464;SDS011;18089;47.428;15.006;2022-09-12T08:58:08;4.05;;;3.75;;
31464;SDS011;18089;47.428;15.006;2022-09-12T09:00:46;4.90;;;4.30;;
31464;SDS011;18089;47.428;15.006;2022-09-12T09:03:31;6.47;;;5.88;;
31464;SDS011;18089;47.428;15.006;2022-09-12T09:06:18;3.50;;;3.22;;
31464;SDS011;18089;47.428;15.006;2022-09-12T09:08:59;3.70;;;3.40;;
31464;SDS011;18089;47.428;15.006;2022-09-12T09:11:40;3.55;;;3.20;;
31464;SDS011;18089;47.428;15.006;2022-09-12T09:14:27;3.47;;;3.17;;
31464;SDS011;18089;47.428;15.006;2022-09-12T09:17:22;3.70;;;3.42;;
31464;SDS011;18089;47.428;15.006;2022-09-12T09:19:58;3.42;;;3.13;;
31464;SDS011;18089;47.428;15.006;2022-09-12T09:22:36;3.70;;;3.50;;
31464;SDS011;18089;47.428;15.006;2022-09-12T09:25:14;3.40;;;3.20;;
31464;SDS011;18089;47.428;15.006;2022-09-12T09:27:49;3.30;;;3.00;;
31464;SDS011;18089;47.428;15.006;2022-09-12T09:30:27;3.03;;;2.83;;
31464;SDS011;18089;47.428;15.006;2022-09-12T09:33:00;3.70;;;3.15;;
31464;SDS011;18089;47.428;15.006;2022-09-12T09:35:37;3.25;;;2.90;;
31464;SDS011;18089;47.428;15.006;2022-09-12T09:38:21;2.97;;;2.78;;
31464;SDS011;18089;47.428;15.006;2022-09-12T09:40:58;7.45;;;4.22;;
31464;SDS011;18089;47.428;15.006;2022-09-12T09:43:42;3.22;;;2.92;;
31464;SDS011;18089;47.428;15.006;2022-09-12T09:46:15;2.60;;;2.40;;
31464;SDS011;18089;47.428;15.006;2022-09-12T09:48:47;2.72;;;2.58;;
31464;SDS011;18089;47.428;15.006;2022-09-12T09:51:23;3.05;;;2.85;;
31464;SDS011;18089;47.428;15.006;2022-09-12T09:53:57;2.40;;;2.30;;
31464;SDS011;18089;47.428;15.006;2022-09-12T09:56:32;2.80;;;2.60;;
31464;SDS011;18089;47.428;15.006;2022-09-12T09:59:09;2.50;;;2.30;;
31464;SDS011;18089;47.428;15.006;2022-09-12T10:01:47;2.28;;;2.17;;
31464;SDS011;18089;47.428;15.006;2022-09-12T10:04:22;2.00;;;1.90;;
31464;SDS011;18089;47.428;15.006;2022-09-12T10:06:56;2.80;;;2.00;;
31464;SDS011;18089;47.428;15.006;2022-09-12T10:09:30;2.15;;;1.95;;
31464;SDS011;18089;47.428;15.006;2022-09-12T10:12:18;1.90;;;1.80;;
31464;SDS011;18089;47.428;15.006;2022-09-12T10:14:55;1.77;;;1.67;;
31464;SDS011;18089;47.428;15.006;2022-09-12T10:17:30;1.90;;;1.80;;
31464;SDS011;18089;47.428;15.006;2022-09-12T10:20:03;1.92;;;1.83;;
31464;SDS011;18089;47.428;15.006;2022-09-12T10:22:35;3.88;;;1.80;;
31464;SDS011;18089;47.428;15.006;2022-09-12T10:25:10;1.50;;;1.40;;
31464;SDS011;18089;47.428;15.006;2022-09-12T10:27:42;1.45;;;1.35;;
31464;SDS011;18089;47.428;15.006;2022-09-12T10:30:15;1.70;;;1.60;;
31464;SDS011;18089;47.428;15.006;2022-09-12T10:32:50;1.35;;;1.35;;
31464;SDS011;18089;47.428;15.006;2022-09-12T10:35:23;1.60;;;1.50;;
31464;SDS011;18089;47.428;15.006;2022-09-12T10:38:00;1.65;;;1.52;;
31464;SDS011;18089;47.428;15.006;2022-09-12T10:40:36;1.98;;;1.40;;
31464;SDS011;18089;47.428;15.006;2022-09-12T10:43:15;1.70;;;1.38;;
31464;SDS011;18089;47.428;15.006;2022-09-12T10:45:48;1.80;;;1.70;;
31464;SDS011;18089;47.428;15.006;2022-09-12T10:48:26;1.90;;;1.25;;
31464;SDS011;18089;47.428;15.006;2022-09-12T10:51:00;1.23;;;1.08;;
31464;SDS011;18089;47.428;15.006;2022-09-12T10:53:38;1.10;;;0.90;;
31464;SDS011;18089;47.428;15.006;2022-09-12T10:56:12;1.10;;;1.10;;
31464;SDS011;18089;47.428;15.006;2022-09-12T10:58:51;0.98;;;0.98;;
31464;SDS011;18089;47.428;15.006;2022-09-12T11:01:41;1.00;;;1.00;;
31464;SDS011;18089;47.428;15.006;2022-09-12T11:04:25;1.55;;;0.90;;
31464;SDS011;18089;47.428;15.006;2022-09-12T11:09:54;1.23;;;1.13;;
31464;SDS011;18089;47.428;15.006;2022-09-12T11:12:32;0.93;;;0.93;;
31464;SDS011;18089;47.428;15.006;2022-09-12T11:15:10;1.08;;;1.00;;
31464;SDS011;18089;47.428;15.006;2022-09-12T11:17:55;1.02;;;1.02;;
31464;SDS011;18089;47.428;15.006;2022-09-12T11:20:42;1.20;;;1.10;;
31464;SDS011;18089;47.428;15.006;2022-09-12T11:23:44;0.95;;;0.95;;
31464;SDS011;18089;47.428;15.006;2022-09-12T11:26:49;1.00;;;1.00;;
31464;SDS011;18089;47.428;15.006;2022-09-12T11:29:30;1.23;;;1.23;;
31464;SDS011;18089;47.428;15.006;2022-09-12T11:32:11;1.33;;;1.20;;
31464;SDS011;18089;47.428;15.006;2022-09-12T11:34:56;1.33;;;1.30;;
31464;SDS011;18089;47.428;15.006;2022-09-12T11:37:39;1.38;;;1.30;;
31464;SDS011;18089;47.428;15.006;2022-09-12T11:40:22;1.73;;;1.50;;
31464;SDS011;18089;47.428;15.006;2022-09-12T11:43:00;2.38;;;1.55;;
31464;SDS011;18089;47.428;15.006;2022-09-12T11:45:38;1.65;;;1.42;;
31464;SDS011;18089;47.428;15.006;2022-09-12T11:48:13;1.30;;;1.30;;
31464;SDS011;18089;47.428;15.006;2022-09-12T11:50:50;1.50;;;1.40;;
31464;SDS011;18089;47.428;15.006;2022-09-12T11:53:25;1.30;;;1.20;;
31464;SDS011;18089;47.428;15.006;2022-09-12T11:56:01;1.20;;;1.20;;
31464;SDS011;18089;47.428;15.006;2022-09-12T11:58:39;1.80;;;1.50;;
31464;SDS011;18089;47.428;15.006;2022-09-12T12:01:13;2.50;;;1.60;;
31464;SDS011;18089;47.428;15.006;2022-09-12T12:03:47;2.20;;;1.40;;
31464;SDS011;18089;47.428;15.006;2022-09-12T12:06:23;1.40;;;1.30;;
31464;SDS011;18089;47.428;15.006;2022-09-12T12:08:58;1.27;;;1.17;;
31464;SDS011;18089;47.428;15.006;2022-09-12T12:11:31;1.95;;;0.98;;
31464;SDS011;18089;47.428;15.006;2022-09-12T12:14:06;1.55;;;0.80;;
31464;SDS011;18089;47.428;15.006;2022-09-12T12:16:44;1.42;;;0.80;;
31464;SDS011;18089;47.428;15.006;2022-09-12T12:19:27;0.60;;;0.60;;
31464;SDS011;18089;47.428;15.006;2022-09-12T12:22:06;0.82;;;0.82;;
31464;SDS011;18089;47.428;15.006;2022-09-12T12:24:53;0.70;;;0.70;;
31464;SDS011;18089;47.428;15.006;2022-09-12T12:27:45;1.00;;;1.00;;
31464;SDS011;18089;47.428;15.006;2022-09-12T12:36:57;2.70;;;1.00;;
31464;SDS011;18089;47.428;15.006;2022-09-12T12:46:06;2.65;;;1.00;;
31464;SDS011;18089;47.428;15.006;2022-09-12T12:48:56;1.05;;;1.05;;
31464;SDS011;18089;47.428;15.006;2022-09-12T12:51:36;0.85;;;0.85;;
31464;SDS011;18089;47.428;15.006;2022-09-12T12:54:26;0.80;;;0.77;;
31464;SDS011;18089;47.428;15.006;2022-09-12T12:57:14;0.85;;;0.70;;
31464;SDS011;18089;47.428;15.006;2022-09-12T12:59:57;2.30;;;2.05;;
31464;SDS011;18089;47.428;15.006;2022-09-12T13:02:33;1.13;;;1.02;;
31464;SDS011;18089;47.428;15.006;2022-09-12T13:05:15;0.52;;;0.52;;
31464;SDS011;18089;47.428;15.006;2022-09-12T13:07:52;1.85;;;0.70;;
31464;SDS011;18089;47.428;15.006;2022-09-12T13:10:26;0.68;;;0.65;;
31464;SDS011;18089;47.428;15.006;2022-09-12T13:13:00;0.77;;;0.60;;
31464;SDS011;18089;47.428;15.006;2022-09-12T13:15:45;0.50;;;0.50;;
31464;SDS011;18089;47.428;15.006;2022-09-12T13:18:22;0.63;;;0.60;;
31464;SDS011;18089;47.428;15.006;2022-09-12T13:21:01;27.67;;;18.40;;
31464;SDS011;18089;47.428;15.006;2022-09-12T13:23:39;1.48;;;0.75;;
31464;SDS011;18089;47.428;15.006;2022-09-12T13:26:12;0.80;;;0.70;;
31464;SDS011;18089;47.428;15.006;2022-09-12T13:29:10;2.25;;;0.70;;
31464;SDS011;18089;47.428;15.006;2022-09-12T13:31:44;1.20;;;0.60;;
31464;SDS011;18089;47.428;15.006;2022-09-12T13:34:20;0.88;;;0.60;;
31464;SDS011;18089;47.428;15.006;2022-09-12T13:36:56;2.05;;;0.63;;
31464;SDS011;18089;47.428;15.006;2022-09-12T13:39:57;0.55;;;0.55;;
31464;SDS011;18089;47.428;15.006;2022-09-12T13:42:39;0.80;;;0.70;;
31464;SDS011;18089;47.428;15.006;2022-09-12T13:45:12;1.38;;;0.70;;
31464;SDS011;18089;47.428;15.006;2022-09-12T13:47:46;0.60;;;0.60;;
31464;SDS011;18089;47.428;15.006;2022-09-12T13:50:23;0.70;;;0.70;;
31464;SDS011;18089;47.428;15.006;2022-09-12T13:52:57;1.17;;;0.60;;
31464;SDS011;18089;47.428;15.006;2022-09-12T13:55:32;0.60;;;0.60;;
31464;SDS011;18089;47.428;15.006;2022-09-12T13:58:05;1.38;;;0.70;;
31464;SDS011;18089;47.428;15.006;2022-09-12T14:01:01;2.40;;;2.20;;
31464;SDS011;18089;47.428;15.006;2022-09-12T14:03:38;1.80;;;0.70;;
31464;SDS011;18089;47.428;15.006;2022-09-12T14:06:35;2.38;;;0.80;;
31464;SDS011;18089;47.428;15.006;2022-09-12T14:09:13;1.00;;;0.80;;
31464;SDS011;18089;47.428;15.006;2022-09-12T14:11:46;1.80;;;0.63;;
31464;SDS011;18089;47.428;15.006;2022-09-12T14:14:22;0.73;;;0.60;;
31464;SDS011;18089;47.428;15.006;2022-09-12T14:17:00;0.65;;;0.65;;
31464;SDS011;18089;47.428;15.006;2022-09-12T14:19:39;0.57;;;0.57;;
31464;SDS011;18089;47.428;15.006;2022-09-12T14:22:14;0.47;;;0.40;;
31464;SDS011;18089;47.428;15.006;2022-09-12T14:24:47;0.60;;;0.60;;
31464;SDS011;18089;47.428;15.006;2022-09-12T14:27:21;0.82;;;0.60;;
31464;SDS011;18089;47.428;15.006;2022-09-12T14:29:59;0.70;;;0.70;;
31464;SDS011;18089;47.428;15.006;2022-09-12T14:32:34;0.60;;;0.60;;
31464;SDS011;18089;47.428;15.006;2022-09-12T14:35:12;2.25;;;0.98;;
31464;SDS011;18089;47.428;15.006;2022-09-12T14:37:50;18.63;;;16.33;;
31464;SDS011;18089;47.428;15.006;2022-09-12T14:40:22;3.47;;;3.05;;
31464;SDS011;18089;47.428;15.006;2022-09-12T14:42:54;1.85;;;1.13;;
31464;SDS011;18089;47.428;15.006;2022-09-12T14:45:28;1.40;;;0.90;;
31464;SDS011;18089;47.428;15.006;2022-09-12T14:48:00;0.80;;;0.80;;
31464;SDS011;18089;47.428;15.006;2022-09-12T14:50:33;0.80;;;0.80;;
31464;SDS011;18089;47.428;15.006;2022-09-12T14:53:19;1.10;;;1.02;;
31464;SDS011;18089;47.428;15.006;2022-09-12T14:55:56;1.10;;;1.00;;
31464;SDS011;18089;47.428;15.006;2022-09-12T14:58:29;3.05;;;1.02;;
31464;SDS011;18089;47.428;15.006;2022-09-12T15:01:02;6.70;;;5.55;;
31464;SDS011;18089;47.428;15.006;2022-09-12T15:03:53;4.35;;;2.88;;
31464;SDS011;18089;47.428;15.006;2022-09-12T15:06:26;2.20;;;0.90;;
31464;SDS011;18089;47.428;15.006;2022-09-12T15:09:01;1.77;;;0.80;;
31464;SDS011;18089;47.428;15.006;2022-09-12T15:11:39;0.75;;;0.75;;
31464;SDS011;18089;47.428;15.006;2022-09-12T15:14:11;1.20;;;1.10;;
31464;SDS011;18089;47.428;15.006;2022-09-12T15:16:43;1.88;;;0.80;;
31464;SDS011;18089;47.428;15.006;2022-09-12T15:19:15;0.88;;;0.88;;
31464;SDS011;18089;47.428;15.006;2022-09-12T15:21:47;0.73;;;0.73;;
31464;SDS011;18089;47.428;15.006;2022-09-12T15:24:21;8.13;;;6.65;;
31464;SDS011;18089;47.428;15.006;2022-09-12T15:26:53;10.65;;;9.02;;
31464;SDS011;18089;47.428;15.006;2022-09-12T15:29:25;1.30;;;0.90;;
31464;SDS011;18089;47.428;15.006;2022-09-12T15:31:57;2.70;;;0.82;;
31464;SDS011;18089;47.428;15.006;2022-09-12T15:34:29;1.30;;;1.20;;
31464;SDS011;18089;47.428;15.006;2022-09-12T15:37:01;0.88;;;0.88;;
31464;SDS011;18089;47.428;15.006;2022-09-12T15:39:34;2.75;;;2.17;;
31464;SDS011;18089;47.428;15.006;2022-09-12T15:42:07;2.65;;;1.10;;
31464;SDS011;18089;47.428;15.006;2022-09-12T15:44:39;1.42;;;0.90;;
31464;SDS011;18089;47.428;15.006;2022-09-12T15:47:12;1.13;;;1.05;;
31464;SDS011;18089;47.428;15.006;2022-09-12T15:49:44;1.35;;;1.25;;